sensor_id;sensor_type;location;lat;lon;timestamp;P1;durP1;ratioP1;P2;durP2;ratioP2
7013;SDS011;3547;50.774;12.918;2023-11-21T00:03:02;1.43;;;1.00;;
7013;SDS011;3547;50.774;12.918;2023-11-21T00:05:29;1.80;;;1.50;;
7013;SDS011;3547;50.774;12.918;2023-11-21T00:07:56;2.17;;;1.40;;
7013;SDS011;3547;50.774;12.918;2023-11-21T00:16:56;2.10;;;1.20;;
7013;SDS011;3547;50.774;12.918;2023-11-21T00:19:22;2.10;;;1.23;;
7013;SDS011;3547;50.774;12.918;2023-11-21T00:21:48;1.90;;;1.30;;
7013;SDS011;3547;50.774;12.918;2023-11-21T00:24:14;1.50;;;1.40;;
7013;SDS011;3547;50.774;12.918;2023-11-21T00:26:40;2.47;;;1.27;;
7013;SDS011;3547;50.774;12.918;2023-11-21T00:29:07;1.23;;;1.13;;
7013;SDS011;3547;50.774;12.918;2023-11-21T00:31:34;1.57;;;1.33;;
7013;SDS011;3547;50.774;12.918;2023-11-21T00:34:04;2.87;;;1.77;;
7013;SDS011;3547;50.774;12.918;2023-11-21T00:36:31;1.70;;;1.30;;
7013;SDS011;3547;50.774;12.918;2023-11-21T00:38:58;1.77;;;1.20;;
7013;SDS011;3547;50.774;12.918;2023-11-21T00:41:25;1.27;;;1.13;;
7013;SDS011;3547;50.774;12.918;2023-11-21T00:43:56;1.30;;;1.00;;
7013;SDS011;3547;50.774;12.918;2023-11-21T00:46:22;1.73;;;1.33;;
7013;SDS011;3547;50.774;12.918;2023-11-21T00:48:49;2.60;;;1.33;;
7013;SDS011;3547;50.774;12.918;2023-11-21T00:51:15;1.47;;;1.23;;
7013;SDS011;3547;50.774;12.918;2023-11-21T00:53:41;1.30;;;1.20;;
7013;SDS011;3547;50.774;12.918;2023-11-21T00:56:08;1.77;;;1.30;;
7013;SDS011;3547;50.774;12.918;2023-11-21T00:58:34;2.60;;;1.67;;
7013;SDS011;3547;50.774;12.918;2023-11-21T01:01:03;1.33;;;1.23;;
7013;SDS011;3547;50.774;12.918;2023-11-21T01:03:29;1.70;;;1.30;;
7013;SDS011;3547;50.774;12.918;2023-11-21T01:05:56;2.43;;;1.40;;
7013;SDS011;3547;50.774;12.918;2023-11-21T01:08:22;1.20;;;1.10;;
7013;SDS011;3547;50.774;12.918;2023-11-21T01:10:49;1.93;;;1.50;;
7013;SDS011;3547;50.774;12.918;2023-11-21T01:13:15;2.53;;;1.40;;
7013;SDS011;3547;50.774;12.918;2023-11-21T01:15:42;1.33;;;1.23;;
7013;SDS011;3547;50.774;12.918;2023-11-21T01:18:08;1.33;;;1.23;;
7013;SDS011;3547;50.774;12.918;2023-11-21T01:20:34;1.83;;;1.40;;
7013;SDS011;3547;50.774;12.918;2023-11-21T01:23:00;1.67;;;1.40;;
7013;SDS011;3547;50.774;12.918;2023-11-21T01:25:26;1.60;;;1.50;;
7013;SDS011;3547;50.774;12.918;2023-11-21T01:27:52;3.30;;;1.73;;
7013;SDS011;3547;50.774;12.918;2023-11-21T01:30:26;2.87;;;1.20;;
7013;SDS011;3547;50.774;12.918;2023-11-21T01:32:52;2.33;;;1.30;;
7013;SDS011;3547;50.774;12.918;2023-11-21T01:35:18;1.23;;;1.10;;
7013;SDS011;3547;50.774;12.918;2023-11-21T01:37:44;1.27;;;1.07;;
7013;SDS011;3547;50.774;12.918;2023-11-21T01:40:11;1.80;;;0.97;;
7013;SDS011;3547;50.774;12.918;2023-11-21T01:42:39;1.20;;;1.10;;
7013;SDS011;3547;50.774;12.918;2023-11-21T01:45:06;5.40;;;1.23;;
7013;SDS011;3547;50.774;12.918;2023-11-21T01:47:33;0.90;;;0.90;;
7013;SDS011;3547;50.774;12.918;2023-11-21T01:50:01;1.27;;;1.17;;
7013;SDS011;3547;50.774;12.918;2023-11-21T01:52:30;2.70;;;0.80;;
7013;SDS011;3547;50.774;12.918;2023-11-21T01:54:57;5.00;;;0.77;;
7013;SDS011;3547;50.774;12.918;2023-11-21T01:57:24;2.47;;;1.13;;
7013;SDS011;3547;50.774;12.918;2023-11-21T01:59:51;1.80;;;1.30;;
7013;SDS011;3547;50.774;12.918;2023-11-21T02:05:42;1.60;;;1.30;;
7013;SDS011;3547;50.774;12.918;2023-11-21T02:08:08;1.37;;;1.27;;
7013;SDS011;3547;50.774;12.918;2023-11-21T02:10:35;0.70;;;0.70;;
7013;SDS011;3547;50.774;12.918;2023-11-21T02:13:02;1.90;;;0.97;;
7013;SDS011;3547;50.774;12.918;2023-11-21T02:15:29;0.80;;;0.80;;
7013;SDS011;3547;50.774;12.918;2023-11-21T02:17:55;0.90;;;0.90;;
7013;SDS011;3547;50.774;12.918;2023-11-21T02:20:24;2.67;;;0.80;;
7013;SDS011;3547;50.774;12.918;2023-11-21T02:22:52;0.73;;;0.73;;
7013;SDS011;3547;50.774;12.918;2023-11-21T02:25:29;0.90;;;0.90;;
7013;SDS011;3547;50.774;12.918;2023-11-21T02:27:58;1.87;;;1.20;;
7013;SDS011;3547;50.774;12.918;2023-11-21T02:30:26;3.63;;;1.17;;
7013;SDS011;3547;50.774;12.918;2023-11-21T02:32:53;2.10;;;1.40;;
7013;SDS011;3547;50.774;12.918;2023-11-21T02:35:20;1.90;;;1.60;;
7013;SDS011;3547;50.774;12.918;2023-11-21T02:37:48;2.03;;;1.60;;
7013;SDS011;3547;50.774;12.918;2023-11-21T02:40:16;1.60;;;1.30;;
7013;SDS011;3547;50.774;12.918;2023-11-21T02:42:49;1.80;;;1.53;;
7013;SDS011;3547;50.774;12.918;2023-11-21T02:45:21;1.23;;;1.00;;
7013;SDS011;3547;50.774;12.918;2023-11-21T02:47:48;1.17;;;1.07;;
7013;SDS011;3547;50.774;12.918;2023-11-21T02:50:21;1.23;;;1.10;;
7013;SDS011;3547;50.774;12.918;2023-11-21T02:52:56;2.40;;;1.10;;
7013;SDS011;3547;50.774;12.918;2023-11-21T02:55:26;1.73;;;0.93;;
7013;SDS011;3547;50.774;12.918;2023-11-21T03:01:14;1.10;;;1.00;;
7013;SDS011;3547;50.774;12.918;2023-11-21T03:03:40;1.07;;;1.00;;
7013;SDS011;3547;50.774;12.918;2023-11-21T03:06:07;1.83;;;1.17;;
7013;SDS011;3547;50.774;12.918;2023-11-21T03:08:34;1.57;;;1.37;;
7013;SDS011;3547;50.774;12.918;2023-11-21T03:11:12;4.17;;;1.30;;
7013;SDS011;3547;50.774;12.918;2023-11-21T03:13:40;1.90;;;1.00;;
7013;SDS011;3547;50.774;12.918;2023-11-21T03:16:09;1.20;;;1.10;;
7013;SDS011;3547;50.774;12.918;2023-11-21T03:18:39;1.80;;;1.43;;
7013;SDS011;3547;50.774;12.918;2023-11-21T03:21:20;1.70;;;1.20;;
7013;SDS011;3547;50.774;12.918;2023-11-21T03:23:49;1.73;;;1.20;;
7013;SDS011;3547;50.774;12.918;2023-11-21T03:26:24;1.90;;;1.13;;
7013;SDS011;3547;50.774;12.918;2023-11-21T03:28:51;0.60;;;0.60;;
7013;SDS011;3547;50.774;12.918;2023-11-21T03:31:19;4.17;;;1.17;;
7013;SDS011;3547;50.774;12.918;2023-11-21T03:33:45;6.17;;;1.17;;
7013;SDS011;3547;50.774;12.918;2023-11-21T03:39:35;0.67;;;0.60;;
7013;SDS011;3547;50.774;12.918;2023-11-21T03:42:01;0.70;;;0.70;;
7013;SDS011;3547;50.774;12.918;2023-11-21T03:44:28;0.97;;;0.80;;
7013;SDS011;3547;50.774;12.918;2023-11-21T03:46:54;2.07;;;0.97;;
7013;SDS011;3547;50.774;12.918;2023-11-21T03:49:21;1.40;;;1.30;;
7013;SDS011;3547;50.774;12.918;2023-11-21T03:51:47;1.10;;;1.00;;
7013;SDS011;3547;50.774;12.918;2023-11-21T03:54:13;0.80;;;0.80;;
7013;SDS011;3547;50.774;12.918;2023-11-21T03:56:46;1.30;;;1.20;;
7013;SDS011;3547;50.774;12.918;2023-11-21T03:59:12;1.17;;;1.00;;
7013;SDS011;3547;50.774;12.918;2023-11-21T04:01:38;3.37;;;1.20;;
7013;SDS011;3547;50.774;12.918;2023-11-21T04:04:05;1.70;;;1.13;;
7013;SDS011;3547;50.774;12.918;2023-11-21T04:06:41;2.77;;;1.30;;
7013;SDS011;3547;50.774;12.918;2023-11-21T04:09:10;0.93;;;0.83;;
7013;SDS011;3547;50.774;12.918;2023-11-21T04:12:36;1.67;;;1.40;;
7013;SDS011;3547;50.774;12.918;2023-11-21T04:15:05;6.37;;;1.00;;
7013;SDS011;3547;50.774;12.918;2023-11-21T04:20:59;2.87;;;1.33;;
7013;SDS011;3547;50.774;12.918;2023-11-21T04:23:35;3.50;;;1.20;;
7013;SDS011;3547;50.774;12.918;2023-11-21T04:29:03;11.50;;;1.47;;
7013;SDS011;3547;50.774;12.918;2023-11-21T04:34:57;2.10;;;1.47;;
7013;SDS011;3547;50.774;12.918;2023-11-21T04:37:55;1.40;;;1.30;;
7013;SDS011;3547;50.774;12.918;2023-11-21T04:40:24;1.40;;;1.20;;
7013;SDS011;3547;50.774;12.918;2023-11-21T04:42:52;2.87;;;2.03;;
7013;SDS011;3547;50.774;12.918;2023-11-21T04:45:41;2.40;;;1.87;;
7013;SDS011;3547;50.774;12.918;2023-11-21T04:48:08;2.70;;;1.40;;
7013;SDS011;3547;50.774;12.918;2023-11-21T04:50:34;2.60;;;1.10;;
7013;SDS011;3547;50.774;12.918;2023-11-21T04:53:03;2.40;;;1.20;;
7013;SDS011;3547;50.774;12.918;2023-11-21T04:55:30;2.80;;;1.73;;
7013;SDS011;3547;50.774;12.918;2023-11-21T04:57:57;2.87;;;1.30;;
7013;SDS011;3547;50.774;12.918;2023-11-21T05:00:52;2.43;;;1.17;;
7013;SDS011;3547;50.774;12.918;2023-11-21T05:03:21;2.23;;;1.37;;
7013;SDS011;3547;50.774;12.918;2023-11-21T05:05:55;1.13;;;1.03;;
7013;SDS011;3547;50.774;12.918;2023-11-21T05:08:21;4.47;;;1.63;;
7013;SDS011;3547;50.774;12.918;2023-11-21T05:10:55;1.47;;;1.17;;
7013;SDS011;3547;50.774;12.918;2023-11-21T05:16:14;2.97;;;1.40;;
7013;SDS011;3547;50.774;12.918;2023-11-21T05:18:48;3.13;;;1.60;;
7013;SDS011;3547;50.774;12.918;2023-11-21T05:27:34;2.03;;;1.37;;
7013;SDS011;3547;50.774;12.918;2023-11-21T05:34:00;4.27;;;1.43;;
7013;SDS011;3547;50.774;12.918;2023-11-21T05:36:27;2.20;;;1.57;;
7013;SDS011;3547;50.774;12.918;2023-11-21T05:38:53;1.77;;;1.43;;
7013;SDS011;3547;50.774;12.918;2023-11-21T05:41:20;1.77;;;1.57;;
7013;SDS011;3547;50.774;12.918;2023-11-21T05:43:47;1.90;;;1.50;;
7013;SDS011;3547;50.774;12.918;2023-11-21T05:46:13;3.30;;;1.93;;
7013;SDS011;3547;50.774;12.918;2023-11-21T05:48:39;4.47;;;1.77;;
7013;SDS011;3547;50.774;12.918;2023-11-21T05:51:11;3.97;;;1.70;;
7013;SDS011;3547;50.774;12.918;2023-11-21T05:53:39;3.33;;;1.67;;
7013;SDS011;3547;50.774;12.918;2023-11-21T05:56:05;2.13;;;1.93;;
7013;SDS011;3547;50.774;12.918;2023-11-21T05:58:31;2.17;;;1.90;;
7013;SDS011;3547;50.774;12.918;2023-11-21T06:00:58;4.93;;;1.83;;
7013;SDS011;3547;50.774;12.918;2023-11-21T06:03:24;2.23;;;1.70;;
7013;SDS011;3547;50.774;12.918;2023-11-21T06:05:50;2.27;;;1.83;;
7013;SDS011;3547;50.774;12.918;2023-11-21T06:08:16;2.80;;;1.90;;
7013;SDS011;3547;50.774;12.918;2023-11-21T06:10:43;3.40;;;1.83;;
7013;SDS011;3547;50.774;12.918;2023-11-21T06:13:14;2.50;;;2.07;;
7013;SDS011;3547;50.774;12.918;2023-11-21T06:15:40;2.33;;;1.80;;
7013;SDS011;3547;50.774;12.918;2023-11-21T06:18:06;5.80;;;2.23;;
7013;SDS011;3547;50.774;12.918;2023-11-21T06:20:35;3.63;;;1.93;;
7013;SDS011;3547;50.774;12.918;2023-11-21T06:23:02;3.50;;;1.90;;
7013;SDS011;3547;50.774;12.918;2023-11-21T06:25:29;3.93;;;2.03;;
7013;SDS011;3547;50.774;12.918;2023-11-21T06:28:01;4.13;;;2.27;;
7013;SDS011;3547;50.774;12.918;2023-11-21T06:30:27;3.40;;;2.33;;
7013;SDS011;3547;50.774;12.918;2023-11-21T06:32:54;4.97;;;2.10;;
7013;SDS011;3547;50.774;12.918;2023-11-21T06:35:21;5.33;;;2.37;;
7013;SDS011;3547;50.774;12.918;2023-11-21T06:37:47;3.50;;;2.13;;
7013;SDS011;3547;50.774;12.918;2023-11-21T06:40:14;4.03;;;2.60;;
7013;SDS011;3547;50.774;12.918;2023-11-21T06:42:40;3.07;;;2.47;;
7013;SDS011;3547;50.774;12.918;2023-11-21T06:45:07;6.70;;;2.40;;
7013;SDS011;3547;50.774;12.918;2023-11-21T06:47:42;6.73;;;2.60;;
7013;SDS011;3547;50.774;12.918;2023-11-21T06:50:14;3.40;;;2.07;;
7013;SDS011;3547;50.774;12.918;2023-11-21T06:52:41;8.63;;;2.50;;
7013;SDS011;3547;50.774;12.918;2023-11-21T06:58:38;15.00;;;2.73;;
7013;SDS011;3547;50.774;12.918;2023-11-21T07:01:06;51.57;;;4.10;;
7013;SDS011;3547;50.774;12.918;2023-11-21T07:03:32;2.93;;;2.40;;
7013;SDS011;3547;50.774;12.918;2023-11-21T07:05:58;3.80;;;2.90;;
7013;SDS011;3547;50.774;12.918;2023-11-21T07:08:25;3.33;;;2.70;;
7013;SDS011;3547;50.774;12.918;2023-11-21T07:10:54;4.30;;;2.90;;
7013;SDS011;3547;50.774;12.918;2023-11-21T07:16:39;3.63;;;2.83;;
7013;SDS011;3547;50.774;12.918;2023-11-21T07:19:08;7.83;;;3.13;;
7013;SDS011;3547;50.774;12.918;2023-11-21T07:21:35;6.27;;;3.10;;
7013;SDS011;3547;50.774;12.918;2023-11-21T07:24:02;3.37;;;2.93;;
7013;SDS011;3547;50.774;12.918;2023-11-21T07:26:29;6.30;;;2.90;;
7013;SDS011;3547;50.774;12.918;2023-11-21T07:28:56;4.23;;;3.17;;
7013;SDS011;3547;50.774;12.918;2023-11-21T07:31:22;5.13;;;3.80;;
7013;SDS011;3547;50.774;12.918;2023-11-21T07:33:55;14.87;;;3.50;;
7013;SDS011;3547;50.774;12.918;2023-11-21T07:36:24;5.70;;;2.63;;
7013;SDS011;3547;50.774;12.918;2023-11-21T07:38:51;2.97;;;2.47;;
7013;SDS011;3547;50.774;12.918;2023-11-21T07:41:18;4.17;;;2.63;;
7013;SDS011;3547;50.774;12.918;2023-11-21T07:43:45;3.97;;;2.43;;
7013;SDS011;3547;50.774;12.918;2023-11-21T07:46:14;6.90;;;2.77;;
7013;SDS011;3547;50.774;12.918;2023-11-21T07:48:41;6.27;;;2.97;;
7013;SDS011;3547;50.774;12.918;2023-11-21T07:51:10;3.33;;;2.40;;
7013;SDS011;3547;50.774;12.918;2023-11-21T07:53:41;2.70;;;2.50;;
7013;SDS011;3547;50.774;12.918;2023-11-21T07:56:10;3.43;;;2.30;;
7013;SDS011;3547;50.774;12.918;2023-11-21T07:58:36;4.00;;;2.27;;
7013;SDS011;3547;50.774;12.918;2023-11-21T08:04:24;4.57;;;2.77;;
7013;SDS011;3547;50.774;12.918;2023-11-21T08:06:58;2.87;;;2.57;;
7013;SDS011;3547;50.774;12.918;2023-11-21T08:09:24;5.57;;;2.70;;
7013;SDS011;3547;50.774;12.918;2023-11-21T08:11:51;4.83;;;2.73;;
7013;SDS011;3547;50.774;12.918;2023-11-21T08:14:18;3.13;;;2.70;;
7013;SDS011;3547;50.774;12.918;2023-11-21T08:16:45;5.17;;;3.03;;
7013;SDS011;3547;50.774;12.918;2023-11-21T08:19:12;4.17;;;2.70;;
7013;SDS011;3547;50.774;12.918;2023-11-21T08:21:47;7.10;;;2.70;;
7013;SDS011;3547;50.774;12.918;2023-11-21T08:24:29;4.80;;;3.43;;
7013;SDS011;3547;50.774;12.918;2023-11-21T08:26:55;5.97;;;3.70;;
7013;SDS011;3547;50.774;12.918;2023-11-21T08:32:43;3.87;;;3.10;;
7013;SDS011;3547;50.774;12.918;2023-11-21T08:35:15;5.40;;;3.67;;
7013;SDS011;3547;50.774;12.918;2023-11-21T08:38:05;10.33;;;3.83;;
7013;SDS011;3547;50.774;12.918;2023-11-21T08:40:31;5.37;;;3.40;;
7013;SDS011;3547;50.774;12.918;2023-11-21T08:43:39;4.83;;;3.80;;
7013;SDS011;3547;50.774;12.918;2023-11-21T08:49:27;4.37;;;2.33;;
7013;SDS011;3547;50.774;12.918;2023-11-21T08:52:05;4.80;;;2.93;;
7013;SDS011;3547;50.774;12.918;2023-11-21T08:54:32;6.63;;;3.20;;
7013;SDS011;3547;50.774;12.918;2023-11-21T08:56:59;4.17;;;3.17;;
7013;SDS011;3547;50.774;12.918;2023-11-21T08:59:27;8.50;;;3.63;;
7013;SDS011;3547;50.774;12.918;2023-11-21T09:01:57;5.40;;;2.67;;
7013;SDS011;3547;50.774;12.918;2023-11-21T09:04:26;5.07;;;3.50;;
7013;SDS011;3547;50.774;12.918;2023-11-21T09:07:04;9.50;;;3.60;;
7013;SDS011;3547;50.774;12.918;2023-11-21T09:09:33;4.33;;;3.43;;
7013;SDS011;3547;50.774;12.918;2023-11-21T09:15:21;4.90;;;3.67;;
7013;SDS011;3547;50.774;12.918;2023-11-21T09:17:47;5.83;;;3.03;;
7013;SDS011;3547;50.774;12.918;2023-11-21T09:20:14;4.87;;;3.43;;
7013;SDS011;3547;50.774;12.918;2023-11-21T09:22:40;5.37;;;3.40;;
7013;SDS011;3547;50.774;12.918;2023-11-21T09:25:06;6.37;;;3.17;;
7013;SDS011;3547;50.774;12.918;2023-11-21T09:27:34;7.10;;;2.60;;
7013;SDS011;3547;50.774;12.918;2023-11-21T09:33:32;3.70;;;3.07;;
7013;SDS011;3547;50.774;12.918;2023-11-21T09:39:32;3.43;;;2.80;;
7013;SDS011;3547;50.774;12.918;2023-11-21T09:42:05;2.93;;;2.63;;
7013;SDS011;3547;50.774;12.918;2023-11-21T09:44:54;3.70;;;2.97;;
7013;SDS011;3547;50.774;12.918;2023-11-21T09:47:30;3.70;;;2.60;;
7013;SDS011;3547;50.774;12.918;2023-11-21T09:49:57;4.63;;;2.13;;
7013;SDS011;3547;50.774;12.918;2023-11-21T09:52:27;3.07;;;2.53;;
7013;SDS011;3547;50.774;12.918;2023-11-21T09:54:54;2.53;;;2.10;;
7013;SDS011;3547;50.774;12.918;2023-11-21T09:57:32;4.40;;;2.63;;
7013;SDS011;3547;50.774;12.918;2023-11-21T10:00:02;2.93;;;2.50;;
7013;SDS011;3547;50.774;12.918;2023-11-21T10:02:30;2.53;;;1.90;;
7013;SDS011;3547;50.774;12.918;2023-11-21T10:05:02;2.53;;;1.87;;
7013;SDS011;3547;50.774;12.918;2023-11-21T10:07:30;2.07;;;1.63;;
7013;SDS011;3547;50.774;12.918;2023-11-21T10:10:56;2.27;;;1.90;;
7013;SDS011;3547;50.774;12.918;2023-11-21T10:13:24;2.50;;;1.80;;
7013;SDS011;3547;50.774;12.918;2023-11-21T10:15:55;2.17;;;1.90;;
7013;SDS011;3547;50.774;12.918;2023-11-21T10:18:23;2.03;;;1.60;;
7013;SDS011;3547;50.774;12.918;2023-11-21T10:20:52;1.70;;;1.60;;
7013;SDS011;3547;50.774;12.918;2023-11-21T10:23:19;2.27;;;1.90;;
7013;SDS011;3547;50.774;12.918;2023-11-21T10:25:47;1.97;;;1.77;;
7013;SDS011;3547;50.774;12.918;2023-11-21T10:31:44;3.40;;;1.93;;
7013;SDS011;3547;50.774;12.918;2023-11-21T10:34:17;2.43;;;2.23;;
7013;SDS011;3547;50.774;12.918;2023-11-21T10:36:45;2.90;;;2.20;;
7013;SDS011;3547;50.774;12.918;2023-11-21T10:39:17;2.60;;;2.10;;
7013;SDS011;3547;50.774;12.918;2023-11-21T10:45:56;3.57;;;2.70;;
7013;SDS011;3547;50.774;12.918;2023-11-21T10:49:28;2.83;;;2.30;;
7013;SDS011;3547;50.774;12.918;2023-11-21T10:52:01;4.27;;;2.73;;
7013;SDS011;3547;50.774;12.918;2023-11-21T10:54:30;3.57;;;2.67;;
7013;SDS011;3547;50.774;12.918;2023-11-21T10:57:18;3.27;;;2.70;;
7013;SDS011;3547;50.774;12.918;2023-11-21T11:00:41;4.07;;;3.10;;
7013;SDS011;3547;50.774;12.918;2023-11-21T11:06:31;3.80;;;2.70;;
7013;SDS011;3547;50.774;12.918;2023-11-21T11:08:58;2.63;;;1.93;;
7013;SDS011;3547;50.774;12.918;2023-11-21T11:11:48;5.17;;;2.47;;
7013;SDS011;3547;50.774;12.918;2023-11-21T11:14:23;3.40;;;2.60;;
7013;SDS011;3547;50.774;12.918;2023-11-21T11:17:37;17.00;;;2.63;;
7013;SDS011;3547;50.774;12.918;2023-11-21T11:32:28;2.93;;;2.03;;
7013;SDS011;3547;50.774;12.918;2023-11-21T11:38:33;4.37;;;2.43;;
7013;SDS011;3547;50.774;12.918;2023-11-21T11:41:26;2.57;;;2.03;;
7013;SDS011;3547;50.774;12.918;2023-11-21T11:43:59;3.80;;;2.53;;
7013;SDS011;3547;50.774;12.918;2023-11-21T11:46:42;3.60;;;2.50;;
7013;SDS011;3547;50.774;12.918;2023-11-21T11:52:54;3.77;;;2.37;;
7013;SDS011;3547;50.774;12.918;2023-11-21T12:01:35;2.87;;;2.20;;
7013;SDS011;3547;50.774;12.918;2023-11-21T12:06:59;4.20;;;2.90;;
7013;SDS011;3547;50.774;12.918;2023-11-21T12:09:28;3.83;;;2.60;;
7013;SDS011;3547;50.774;12.918;2023-11-21T12:11:55;2.43;;;2.23;;
7013;SDS011;3547;50.774;12.918;2023-11-21T12:14:24;3.23;;;2.30;;
7013;SDS011;3547;50.774;12.918;2023-11-21T12:16:51;3.03;;;2.40;;
7013;SDS011;3547;50.774;12.918;2023-11-21T12:19:17;4.23;;;2.73;;
7013;SDS011;3547;50.774;12.918;2023-11-21T12:21:44;3.53;;;2.27;;
7013;SDS011;3547;50.774;12.918;2023-11-21T12:24:10;2.97;;;1.70;;
7013;SDS011;3547;50.774;12.918;2023-11-21T12:26:50;3.30;;;2.07;;
7013;SDS011;3547;50.774;12.918;2023-11-21T12:29:16;2.00;;;1.73;;
7013;SDS011;3547;50.774;12.918;2023-11-21T12:31:44;2.40;;;2.00;;
7013;SDS011;3547;50.774;12.918;2023-11-21T12:34:12;2.53;;;2.03;;
7013;SDS011;3547;50.774;12.918;2023-11-21T12:36:38;3.17;;;1.90;;
7013;SDS011;3547;50.774;12.918;2023-11-21T12:39:05;3.17;;;2.03;;
7013;SDS011;3547;50.774;12.918;2023-11-21T12:41:34;2.70;;;2.17;;
7013;SDS011;3547;50.774;12.918;2023-11-21T12:44:00;3.20;;;2.23;;
7013;SDS011;3547;50.774;12.918;2023-11-21T12:46:44;4.33;;;2.87;;
7013;SDS011;3547;50.774;12.918;2023-11-21T12:49:11;2.20;;;1.67;;
7013;SDS011;3547;50.774;12.918;2023-11-21T12:51:43;4.67;;;1.90;;
7013;SDS011;3547;50.774;12.918;2023-11-21T12:54:11;3.07;;;2.23;;
7013;SDS011;3547;50.774;12.918;2023-11-21T12:56:38;3.17;;;2.27;;
7013;SDS011;3547;50.774;12.918;2023-11-21T13:03:07;5.43;;;2.00;;
7013;SDS011;3547;50.774;12.918;2023-11-21T13:09:17;2.67;;;2.13;;
7013;SDS011;3547;50.774;12.918;2023-11-21T13:12:06;2.40;;;1.80;;
7013;SDS011;3547;50.774;12.918;2023-11-21T13:20:43;2.93;;;1.93;;
7013;SDS011;3547;50.774;12.918;2023-11-21T13:23:10;2.13;;;1.80;;
7013;SDS011;3547;50.774;12.918;2023-11-21T13:25:45;3.00;;;2.00;;
7013;SDS011;3547;50.774;12.918;2023-11-21T13:32:04;3.70;;;2.43;;
7013;SDS011;3547;50.774;12.918;2023-11-21T13:34:32;3.97;;;2.20;;
7013;SDS011;3547;50.774;12.918;2023-11-21T13:37:10;3.80;;;2.07;;
7013;SDS011;3547;50.774;12.918;2023-11-21T13:40:01;4.53;;;2.33;;
7013;SDS011;3547;50.774;12.918;2023-11-21T13:42:35;3.23;;;2.07;;
7013;SDS011;3547;50.774;12.918;2023-11-21T13:45:01;2.97;;;2.13;;
7013;SDS011;3547;50.774;12.918;2023-11-21T13:47:28;3.10;;;2.13;;
7013;SDS011;3547;50.774;12.918;2023-11-21T13:53:18;4.20;;;2.30;;
7013;SDS011;3547;50.774;12.918;2023-11-21T13:55:48;2.73;;;1.80;;
7013;SDS011;3547;50.774;12.918;2023-11-21T13:58:23;3.03;;;1.83;;
7013;SDS011;3547;50.774;12.918;2023-11-21T14:01:08;2.57;;;2.00;;
7013;SDS011;3547;50.774;12.918;2023-11-21T14:03:52;2.97;;;1.67;;
7013;SDS011;3547;50.774;12.918;2023-11-21T14:06:26;3.93;;;2.50;;
7013;SDS011;3547;50.774;12.918;2023-11-21T14:09:02;2.17;;;1.73;;
7013;SDS011;3547;50.774;12.918;2023-11-21T14:11:32;2.77;;;1.90;;
7013;SDS011;3547;50.774;12.918;2023-11-21T14:14:04;4.80;;;2.50;;
7013;SDS011;3547;50.774;12.918;2023-11-21T14:16:31;3.83;;;2.07;;
7013;SDS011;3547;50.774;12.918;2023-11-21T14:18:57;3.47;;;2.80;;
7013;SDS011;3547;50.774;12.918;2023-11-21T14:21:44;3.07;;;2.27;;
7013;SDS011;3547;50.774;12.918;2023-11-21T14:24:12;3.27;;;2.27;;
7013;SDS011;3547;50.774;12.918;2023-11-21T14:26:39;4.77;;;2.57;;
7013;SDS011;3547;50.774;12.918;2023-11-21T14:29:06;4.40;;;2.37;;
7013;SDS011;3547;50.774;12.918;2023-11-21T14:31:34;2.80;;;1.90;;
7013;SDS011;3547;50.774;12.918;2023-11-21T14:34:01;2.63;;;1.83;;
7013;SDS011;3547;50.774;12.918;2023-11-21T14:36:28;2.77;;;1.87;;
7013;SDS011;3547;50.774;12.918;2023-11-21T14:38:54;3.50;;;2.57;;
7013;SDS011;3547;50.774;12.918;2023-11-21T14:41:21;4.20;;;2.33;;
7013;SDS011;3547;50.774;12.918;2023-11-21T14:43:47;3.10;;;2.20;;
7013;SDS011;3547;50.774;12.918;2023-11-21T14:46:15;4.40;;;2.07;;
7013;SDS011;3547;50.774;12.918;2023-11-21T14:48:44;3.27;;;2.27;;
7013;SDS011;3547;50.774;12.918;2023-11-21T14:51:24;4.53;;;2.87;;
7013;SDS011;3547;50.774;12.918;2023-11-21T14:53:56;4.33;;;2.80;;
7013;SDS011;3547;50.774;12.918;2023-11-21T14:56:31;3.50;;;2.27;;
7013;SDS011;3547;50.774;12.918;2023-11-21T14:59:02;3.73;;;2.30;;
7013;SDS011;3547;50.774;12.918;2023-11-21T15:01:37;2.17;;;1.57;;
7013;SDS011;3547;50.774;12.918;2023-11-21T15:04:21;3.50;;;1.70;;
7013;SDS011;3547;50.774;12.918;2023-11-21T15:07:03;2.37;;;1.80;;
7013;SDS011;3547;50.774;12.918;2023-11-21T15:09:29;3.03;;;2.33;;
7013;SDS011;3547;50.774;12.918;2023-11-21T15:11:59;2.60;;;1.83;;
7013;SDS011;3547;50.774;12.918;2023-11-21T15:14:40;3.20;;;2.20;;
7013;SDS011;3547;50.774;12.918;2023-11-21T15:17:11;3.93;;;2.60;;
7013;SDS011;3547;50.774;12.918;2023-11-21T15:19:44;3.03;;;1.90;;
7013;SDS011;3547;50.774;12.918;2023-11-21T15:22:10;2.13;;;1.70;;
7013;SDS011;3547;50.774;12.918;2023-11-21T15:24:40;2.23;;;1.70;;
7013;SDS011;3547;50.774;12.918;2023-11-21T15:27:08;2.50;;;1.70;;
7013;SDS011;3547;50.774;12.918;2023-11-21T15:29:35;2.20;;;1.73;;
7013;SDS011;3547;50.774;12.918;2023-11-21T15:32:01;2.63;;;2.00;;
7013;SDS011;3547;50.774;12.918;2023-11-21T15:34:27;3.27;;;2.23;;
7013;SDS011;3547;50.774;12.918;2023-11-21T15:36:56;3.00;;;2.33;;
7013;SDS011;3547;50.774;12.918;2023-11-21T15:39:22;2.97;;;2.10;;
7013;SDS011;3547;50.774;12.918;2023-11-21T15:41:54;3.60;;;2.67;;
7013;SDS011;3547;50.774;12.918;2023-11-21T15:44:20;3.03;;;2.20;;
7013;SDS011;3547;50.774;12.918;2023-11-21T15:46:46;5.37;;;4.07;;
7013;SDS011;3547;50.774;12.918;2023-11-21T15:49:19;6.40;;;4.83;;
7013;SDS011;3547;50.774;12.918;2023-11-21T15:51:48;4.27;;;2.87;;
7013;SDS011;3547;50.774;12.918;2023-11-21T15:54:24;3.77;;;2.53;;
7013;SDS011;3547;50.774;12.918;2023-11-21T15:56:51;5.87;;;4.13;;
7013;SDS011;3547;50.774;12.918;2023-11-21T15:59:20;4.03;;;2.87;;
7013;SDS011;3547;50.774;12.918;2023-11-21T16:01:49;4.63;;;2.67;;
7013;SDS011;3547;50.774;12.918;2023-11-21T16:04:16;2.80;;;2.07;;
7013;SDS011;3547;50.774;12.918;2023-11-21T16:06:43;2.73;;;2.37;;
7013;SDS011;3547;50.774;12.918;2023-11-21T16:09:11;8.13;;;4.47;;
7013;SDS011;3547;50.774;12.918;2023-11-21T16:12:02;4.13;;;3.07;;
7013;SDS011;3547;50.774;12.918;2023-11-21T16:14:31;11.93;;;7.57;;
7013;SDS011;3547;50.774;12.918;2023-11-21T16:17:04;3.90;;;2.77;;
7013;SDS011;3547;50.774;12.918;2023-11-21T16:19:34;4.37;;;3.20;;
7013;SDS011;3547;50.774;12.918;2023-11-21T16:22:00;5.97;;;4.20;;
7013;SDS011;3547;50.774;12.918;2023-11-21T16:24:27;5.07;;;3.73;;
7013;SDS011;3547;50.774;12.918;2023-11-21T16:26:53;5.80;;;3.63;;
7013;SDS011;3547;50.774;12.918;2023-11-21T16:29:24;7.43;;;4.73;;
7013;SDS011;3547;50.774;12.918;2023-11-21T16:31:50;5.73;;;3.80;;
7013;SDS011;3547;50.774;12.918;2023-11-21T16:34:18;5.13;;;3.33;;
7013;SDS011;3547;50.774;12.918;2023-11-21T16:36:45;3.70;;;2.77;;
7013;SDS011;3547;50.774;12.918;2023-11-21T16:39:14;6.57;;;2.73;;
7013;SDS011;3547;50.774;12.918;2023-11-21T16:41:42;4.13;;;2.87;;
7013;SDS011;3547;50.774;12.918;2023-11-21T16:44:13;4.70;;;2.97;;
7013;SDS011;3547;50.774;12.918;2023-11-21T16:46:39;5.07;;;2.60;;
7013;SDS011;3547;50.774;12.918;2023-11-21T16:49:08;6.40;;;2.80;;
7013;SDS011;3547;50.774;12.918;2023-11-21T17:01:41;4.30;;;2.63;;
7013;SDS011;3547;50.774;12.918;2023-11-21T17:04:10;3.13;;;2.80;;
7013;SDS011;3547;50.774;12.918;2023-11-21T17:06:39;2.50;;;1.90;;
7013;SDS011;3547;50.774;12.918;2023-11-21T17:09:06;3.87;;;2.47;;
7013;SDS011;3547;50.774;12.918;2023-11-21T17:11:41;4.23;;;2.13;;
7013;SDS011;3547;50.774;12.918;2023-11-21T17:14:07;3.60;;;2.40;;
7013;SDS011;3547;50.774;12.918;2023-11-21T17:16:34;2.70;;;2.30;;
7013;SDS011;3547;50.774;12.918;2023-11-21T17:19:01;5.83;;;2.47;;
7013;SDS011;3547;50.774;12.918;2023-11-21T17:21:29;3.73;;;2.23;;
7013;SDS011;3547;50.774;12.918;2023-11-21T17:23:56;3.17;;;2.30;;
7013;SDS011;3547;50.774;12.918;2023-11-21T17:26:23;5.20;;;2.37;;
7013;SDS011;3547;50.774;12.918;2023-11-21T17:28:49;2.73;;;2.07;;
7013;SDS011;3547;50.774;12.918;2023-11-21T17:31:15;3.87;;;2.20;;
7013;SDS011;3547;50.774;12.918;2023-11-21T17:33:56;3.97;;;2.53;;
7013;SDS011;3547;50.774;12.918;2023-11-21T17:36:36;3.07;;;2.20;;
7013;SDS011;3547;50.774;12.918;2023-11-21T17:39:06;3.57;;;2.20;;